CYQK

Details ICAO CYQK (YQK)
Name KENORA
Region Canada
Timezone America/Winnipeg (UTC-6.0)
Plans Departing 4
Arriving 3
Stats Elevation 1,332 ft / 406 m (AMSL)
Location 49.788329° -94.363189°
Runways 1
Magnetic Variation 0.544° E
Sunrise 2017-12-13 14:08:26 UTC / 2017-12-13 08:08:26 Local
Sunset 2017-12-13 22:17:58 UTC / 2017-12-13 16:17:58 Local
Advertisement - Login to hide

Runways

ID Width Length Bearing (true) Bearing (mag) Surface Threshold Offset Overrun Length
08 150 ft / 46 m 5,735 ft / 1,748 m 77.34° 76.80° Asphalt 0 ft / 0 m 0 ft / 0 m
26 150 ft / 46 m 5,735 ft / 1,748 m 257.36° 256.82° Asphalt 0 ft / 0 m 0 ft / 0 m

Map

Weather


0- 5 10 15 20 25 30 35+ Temperature / ° C

Clouds and Precipitation
Forecast for 2017-12-13 18:00 UTC. Updated 2 hours ago

Ground ~20,000 ft ~40,000 ft Winds

METAR

CYQK 131900Z 03007KT 15SM FEW140 SCT220 M11/M14 A2977 RMK AC2CI2 SLP116

TAF

TAF AMD CYQK 131715Z 1317/1402 02006KT 5SM -SN IC FEW008 BKN020 TEMPO 1317/1318 P6SM NSW SCT020 FM131800 02006KT P6SM SCT030 TEMPO 1318/1320 5SM -SN IC BKN020 FM132200 01006KT P6SM FEW030 TEMPO 1322/1402 BKN020 RMK NXT FCST BY 132000Z
Warning: Do not use this data for real-world aviation or navigation. No guarantee of current accuracy is given.